sensor_id;sensor_type;location;lat;lon;timestamp;pressure;altitude;pressure_sealevel;temperature;humidity
55171;BME280;41060;47.510;8.680;2023-03-24T00:01:30;96396.38;;;17.48;43.39
55171;BME280;41060;47.510;8.680;2023-03-24T00:03:57;96391.13;;;17.40;43.77
55171;BME280;41060;47.510;8.680;2023-03-24T00:06:27;96384.00;;;17.32;44.14
55171;BME280;41060;47.510;8.680;2023-03-24T00:08:59;96391.69;;;16.89;45.93
55171;BME280;41060;47.510;8.680;2023-03-24T00:11:30;96102.72;;;15.18;44.85
55171;BME280;41060;47.510;8.680;2023-03-24T00:14:00;96404.47;;;17.25;43.87
55171;BME280;41060;47.510;8.680;2023-03-24T00:16:27;96390.09;;;17.41;43.38
55171;BME280;41060;47.510;8.680;2023-03-24T00:18:54;96415.22;;;17.54;43.20
55171;BME280;41060;47.510;8.680;2023-03-24T00:21:22;96408.75;;;17.49;43.60
55171;BME280;41060;47.510;8.680;2023-03-24T00:23:51;96406.00;;;17.57;43.86
55171;BME280;41060;47.510;8.680;2023-03-24T00:26:20;96393.63;;;17.56;44.17
55171;BME280;41060;47.510;8.680;2023-03-24T00:28:49;96377.09;;;17.52;44.72
55171;BME280;41060;47.510;8.680;2023-03-24T00:31:17;96379.94;;;17.51;44.33
55171;BME280;41060;47.510;8.680;2023-03-24T00:33:45;96375.72;;;17.56;44.42
55171;BME280;41060;47.510;8.680;2023-03-24T00:36:16;96372.50;;;17.61;44.04
55171;BME280;41060;47.510;8.680;2023-03-24T00:38:44;96351.25;;;17.59;43.76
55171;BME280;41060;47.510;8.680;2023-03-24T00:41:14;96351.75;;;17.63;44.04
55171;BME280;41060;47.510;8.680;2023-03-24T00:43:42;96342.97;;;17.54;44.50
55171;BME280;41060;47.510;8.680;2023-03-24T00:46:11;96339.63;;;17.52;44.57
55171;BME280;41060;47.510;8.680;2023-03-24T00:48:53;96344.81;;;17.54;44.51
55171;BME280;41060;47.510;8.680;2023-03-24T00:51:22;96337.78;;;17.53;44.66
55171;BME280;41060;47.510;8.680;2023-03-24T00:53:49;96331.16;;;17.49;45.33
55171;BME280;41060;47.510;8.680;2023-03-24T00:56:25;96322.72;;;17.22;46.53
55171;BME280;41060;47.510;8.680;2023-03-24T00:58:52;96323.63;;;16.92;47.72
55171;BME280;41060;47.510;8.680;2023-03-24T01:01:24;96324.47;;;16.93;46.83
55171;BME280;41060;47.510;8.680;2023-03-24T01:03:51;96259.56;;;16.46;46.99
55171;BME280;41060;47.510;8.680;2023-03-24T01:06:18;96313.31;;;16.89;46.88
55171;BME280;41060;47.510;8.680;2023-03-24T01:08:48;96306.91;;;16.98;46.39
55171;BME280;41060;47.510;8.680;2023-03-24T01:11:19;96308.69;;;17.06;46.32
55171;BME280;41060;47.510;8.680;2023-03-24T01:13:51;96289.22;;;17.12;45.91
55171;BME280;41060;47.510;8.680;2023-03-24T01:16:19;96313.09;;;16.99;47.11
55171;BME280;41060;47.510;8.680;2023-03-24T01:18:50;96319.75;;;16.57;48.23
55171;BME280;41060;47.510;8.680;2023-03-24T01:21:17;96316.63;;;16.54;48.36
55171;BME280;41060;47.510;8.680;2023-03-24T01:23:43;96319.16;;;16.47;48.23
55171;BME280;41060;47.510;8.680;2023-03-24T01:26:11;96314.34;;;16.42;48.37
55171;BME280;41060;47.510;8.680;2023-03-24T01:28:37;96314.94;;;16.53;48.60
55171;BME280;41060;47.510;8.680;2023-03-24T01:31:07;96285.25;;;16.47;48.08
55171;BME280;41060;47.510;8.680;2023-03-24T01:33:35;96301.56;;;16.75;47.66
55171;BME280;41060;47.510;8.680;2023-03-24T01:36:03;96301.47;;;16.46;48.27
55171;BME280;41060;47.510;8.680;2023-03-24T01:38:30;96294.41;;;16.53;48.33
55171;BME280;41060;47.510;8.680;2023-03-24T01:40:58;96284.53;;;16.08;49.21
55171;BME280;41060;47.510;8.680;2023-03-24T01:43:30;96319.38;;;16.15;48.85
55171;BME280;41060;47.510;8.680;2023-03-24T01:46:01;96327.09;;;16.32;48.97
55171;BME280;41060;47.510;8.680;2023-03-24T01:48:36;96324.84;;;16.44;47.84
55171;BME280;41060;47.510;8.680;2023-03-24T01:51:07;96326.28;;;16.55;47.71
55171;BME280;41060;47.510;8.680;2023-03-24T01:53:37;96344.78;;;16.33;48.68
55171;BME280;41060;47.510;8.680;2023-03-24T01:56:07;96338.41;;;16.03;49.29
55171;BME280;41060;47.510;8.680;2023-03-24T01:58:37;96350.88;;;16.19;49.07
55171;BME280;41060;47.510;8.680;2023-03-24T02:01:06;96346.50;;;16.26;49.18
55171;BME280;41060;47.510;8.680;2023-03-24T02:03:34;96335.88;;;16.41;48.19
55171;BME280;41060;47.510;8.680;2023-03-24T02:06:05;96327.66;;;16.50;48.26
55171;BME280;41060;47.510;8.680;2023-03-24T02:08:37;96319.84;;;16.64;47.86
55171;BME280;41060;47.510;8.680;2023-03-24T02:11:06;96317.97;;;16.72;47.65
55171;BME280;41060;47.510;8.680;2023-03-24T02:13:33;96306.09;;;16.75;47.52
55171;BME280;41060;47.510;8.680;2023-03-24T02:18:59;96325.88;;;16.66;48.24
55171;BME280;41060;47.510;8.680;2023-03-24T02:22:10;96317.56;;;16.61;48.33
55171;BME280;41060;47.510;8.680;2023-03-24T02:25:01;96327.41;;;16.60;48.88
55171;BME280;41060;47.510;8.680;2023-03-24T02:27:56;96332.38;;;16.40;49.32
55171;BME280;41060;47.510;8.680;2023-03-24T02:30:37;96292.78;;;16.21;49.03
55171;BME280;41060;47.510;8.680;2023-03-24T02:33:34;96329.75;;;16.32;49.86
55171;BME280;41060;47.510;8.680;2023-03-24T02:39:41;96322.41;;;16.34;50.04
55171;BME280;41060;47.510;8.680;2023-03-24T02:42:22;96300.19;;;16.34;48.68
55171;BME280;41060;47.510;8.680;2023-03-24T02:44:59;96313.41;;;16.58;48.27
55171;BME280;41060;47.510;8.680;2023-03-24T02:47:36;96309.59;;;16.53;49.55
55171;BME280;41060;47.510;8.680;2023-03-24T02:50:10;96294.41;;;16.53;49.83
55171;BME280;41060;47.510;8.680;2023-03-24T02:52:45;96282.34;;;16.34;49.95
55171;BME280;41060;47.510;8.680;2023-03-24T02:55:15;96271.75;;;16.41;49.86
55171;BME280;41060;47.510;8.680;2023-03-24T02:57:48;96261.84;;;16.49;49.60
55171;BME280;41060;47.510;8.680;2023-03-24T03:00:22;96257.75;;;16.62;49.29
55171;BME280;41060;47.510;8.680;2023-03-24T03:02:54;96251.28;;;16.56;49.12
55171;BME280;41060;47.510;8.680;2023-03-24T03:05:27;96260.53;;;16.68;48.68
55171;BME280;41060;47.510;8.680;2023-03-24T03:08:00;96255.94;;;16.77;48.38
55171;BME280;41060;47.510;8.680;2023-03-24T03:10:30;96222.16;;;16.46;49.77
55171;BME280;41060;47.510;8.680;2023-03-24T03:13:04;96248.75;;;16.17;50.70
55171;BME280;41060;47.510;8.680;2023-03-24T03:15:36;96242.41;;;15.56;51.97
55171;BME280;41060;47.510;8.680;2023-03-24T03:18:08;96228.56;;;15.53;52.03
55171;BME280;41060;47.510;8.680;2023-03-24T03:20:39;96239.91;;;15.86;50.68
55171;BME280;41060;47.510;8.680;2023-03-24T03:23:19;96233.91;;;16.15;49.75
55171;BME280;41060;47.510;8.680;2023-03-24T03:25:53;96245.09;;;15.87;50.58
55171;BME280;41060;47.510;8.680;2023-03-24T03:28:25;96201.13;;;15.98;50.04
55171;BME280;41060;47.510;8.680;2023-03-24T03:30:56;96246.38;;;16.22;49.85
55171;BME280;41060;47.510;8.680;2023-03-24T03:33:30;96229.91;;;16.33;49.41
55171;BME280;41060;47.510;8.680;2023-03-24T03:36:05;96232.63;;;16.48;48.70
55171;BME280;41060;47.510;8.680;2023-03-24T03:38:41;96235.91;;;16.58;48.82
55171;BME280;41060;47.510;8.680;2023-03-24T03:41:15;96209.66;;;16.62;48.64
55171;BME280;41060;47.510;8.680;2023-03-24T03:43:44;96231.09;;;16.54;49.11
55171;BME280;41060;47.510;8.680;2023-03-24T03:46:12;96218.09;;;16.50;49.36
55171;BME280;41060;47.510;8.680;2023-03-24T03:48:40;96202.16;;;16.57;49.28
55171;BME280;41060;47.510;8.680;2023-03-24T03:51:07;96208.00;;;16.61;49.05
55171;BME280;41060;47.510;8.680;2023-03-24T03:53:39;96211.53;;;16.38;50.47
55171;BME280;41060;47.510;8.680;2023-03-24T03:56:08;96202.91;;;16.51;49.12
55171;BME280;41060;47.510;8.680;2023-03-24T03:58:37;96183.47;;;16.57;48.85
55171;BME280;41060;47.510;8.680;2023-03-24T04:01:06;96156.78;;;16.34;49.17
55171;BME280;41060;47.510;8.680;2023-03-24T04:03:49;96205.66;;;16.20;50.00
55171;BME280;41060;47.510;8.680;2023-03-24T04:06:25;96203.84;;;15.90;51.33
55171;BME280;41060;47.510;8.680;2023-03-24T04:09:05;96212.22;;;15.56;52.53
55171;BME280;41060;47.510;8.680;2023-03-24T04:11:41;96214.81;;;15.33;53.07
55171;BME280;41060;47.510;8.680;2023-03-24T04:14:32;96228.13;;;15.41;52.81
55171;BME280;41060;47.510;8.680;2023-03-24T04:17:13;96230.72;;;15.57;51.76
55171;BME280;41060;47.510;8.680;2023-03-24T04:19:57;96237.28;;;15.78;50.94
55171;BME280;41060;47.510;8.680;2023-03-24T04:22:37;96246.91;;;15.87;50.79
55171;BME280;41060;47.510;8.680;2023-03-24T04:25:10;96263.56;;;15.89;51.26
55171;BME280;41060;47.510;8.680;2023-03-24T04:27:44;96257.47;;;15.80;51.09
55171;BME280;41060;47.510;8.680;2023-03-24T04:30:19;96266.34;;;15.72;51.51
55171;BME280;41060;47.510;8.680;2023-03-24T04:32:51;96242.91;;;15.52;50.90
55171;BME280;41060;47.510;8.680;2023-03-24T04:35:22;96271.41;;;15.90;50.32
55171;BME280;41060;47.510;8.680;2023-03-24T04:37:56;96266.28;;;16.11;49.89
55171;BME280;41060;47.510;8.680;2023-03-24T04:40:30;96280.38;;;15.97;50.44
55171;BME280;41060;47.510;8.680;2023-03-24T04:42:59;96285.53;;;16.07;50.28
55171;BME280;41060;47.510;8.680;2023-03-24T04:45:32;96277.69;;;15.97;50.48
55171;BME280;41060;47.510;8.680;2023-03-24T04:48:02;96296.16;;;16.15;49.95
55171;BME280;41060;47.510;8.680;2023-03-24T04:50:36;96302.56;;;16.06;50.03
55171;BME280;41060;47.510;8.680;2023-03-24T04:53:03;96301.69;;;16.05;50.53
55171;BME280;41060;47.510;8.680;2023-03-24T04:55:49;96307.03;;;16.14;50.16
55171;BME280;41060;47.510;8.680;2023-03-24T04:58:20;96292.84;;;15.74;51.20
55171;BME280;41060;47.510;8.680;2023-03-24T05:00:49;96253.03;;;15.64;50.52
55171;BME280;41060;47.510;8.680;2023-03-24T05:03:17;96306.34;;;16.11;49.76
55171;BME280;41060;47.510;8.680;2023-03-24T05:05:45;96310.66;;;16.21;48.41
55171;BME280;41060;47.510;8.680;2023-03-24T05:08:14;96304.53;;;16.04;47.41
55171;BME280;41060;47.510;8.680;2023-03-24T05:10:42;96290.06;;;16.29;47.33
55171;BME280;41060;47.510;8.680;2023-03-24T05:13:08;96290.13;;;16.21;46.90
55171;BME280;41060;47.510;8.680;2023-03-24T05:15:35;96283.59;;;16.46;46.16
55171;BME280;41060;47.510;8.680;2023-03-24T05:18:05;96277.47;;;16.61;45.94
55171;BME280;41060;47.510;8.680;2023-03-24T05:20:32;96126.25;;;15.68;45.15
55171;BME280;41060;47.510;8.680;2023-03-24T05:22:59;96265.94;;;16.60;45.25
55171;BME280;41060;47.510;8.680;2023-03-24T05:25:28;96281.31;;;16.81;44.41
55171;BME280;41060;47.510;8.680;2023-03-24T05:27:54;96287.38;;;16.75;44.79
55171;BME280;41060;47.510;8.680;2023-03-24T05:30:22;96259.28;;;16.10;45.81
55171;BME280;41060;47.510;8.680;2023-03-24T05:32:48;96307.66;;;16.46;45.26
55171;BME280;41060;47.510;8.680;2023-03-24T05:35:17;96266.59;;;15.86;45.42
55171;BME280;41060;47.510;8.680;2023-03-24T05:37:44;96313.53;;;16.11;45.60
55171;BME280;41060;47.510;8.680;2023-03-24T05:40:11;96264.09;;;15.84;46.12
55171;BME280;41060;47.510;8.680;2023-03-24T05:42:37;96313.72;;;16.32;45.84
55171;BME280;41060;47.510;8.680;2023-03-24T05:45:08;96306.81;;;16.69;45.60
55171;BME280;41060;47.510;8.680;2023-03-24T05:47:35;96301.88;;;16.95;44.96
55171;BME280;41060;47.510;8.680;2023-03-24T05:50:02;96304.63;;;17.10;44.62
55171;BME280;41060;47.510;8.680;2023-03-24T05:52:31;96309.16;;;17.24;44.53
55171;BME280;41060;47.510;8.680;2023-03-24T05:54:58;96319.91;;;17.01;44.64
55171;BME280;41060;47.510;8.680;2023-03-24T05:57:24;96315.72;;;16.84;45.10
55171;BME280;41060;47.510;8.680;2023-03-24T05:59:55;96317.84;;;16.66;45.28
55171;BME280;41060;47.510;8.680;2023-03-24T06:02:21;96320.91;;;16.77;44.93
55171;BME280;41060;47.510;8.680;2023-03-24T06:04:48;96319.59;;;16.96;44.62
55171;BME280;41060;47.510;8.680;2023-03-24T06:07:16;96324.44;;;17.01;46.26
55171;BME280;41060;47.510;8.680;2023-03-24T06:09:44;96327.94;;;17.01;44.85
55171;BME280;41060;47.510;8.680;2023-03-24T06:12:15;96340.94;;;17.42;45.96
55171;BME280;41060;47.510;8.680;2023-03-24T06:14:42;96320.63;;;17.62;45.40
55171;BME280;41060;47.510;8.680;2023-03-24T06:17:09;96343.53;;;18.09;44.34
55171;BME280;41060;47.510;8.680;2023-03-24T06:19:39;96356.22;;;18.36;43.37
55171;BME280;41060;47.510;8.680;2023-03-24T06:22:15;96355.88;;;18.60;42.91
55171;BME280;41060;47.510;8.680;2023-03-24T06:24:42;96313.94;;;18.53;42.50
55171;BME280;41060;47.510;8.680;2023-03-24T06:27:10;96345.41;;;18.87;42.11
55171;BME280;41060;47.510;8.680;2023-03-24T06:29:39;96343.25;;;18.97;41.54
55171;BME280;41060;47.510;8.680;2023-03-24T06:32:06;96305.44;;;18.70;42.13
55171;BME280;41060;47.510;8.680;2023-03-24T06:34:33;96332.34;;;18.98;41.95
55171;BME280;41060;47.510;8.680;2023-03-24T06:37:00;96341.66;;;19.02;42.00
55171;BME280;41060;47.510;8.680;2023-03-24T06:39:26;96310.31;;;18.82;42.03
55171;BME280;41060;47.510;8.680;2023-03-24T06:41:53;96355.13;;;19.09;41.82
55171;BME280;41060;47.510;8.680;2023-03-24T06:44:22;96353.00;;;18.62;42.51
55171;BME280;41060;47.510;8.680;2023-03-24T06:46:48;96361.03;;;18.26;43.96
55171;BME280;41060;47.510;8.680;2023-03-24T06:49:17;96385.94;;;18.41;43.92
55171;BME280;41060;47.510;8.680;2023-03-24T06:51:44;96392.63;;;18.30;43.86
55171;BME280;41060;47.510;8.680;2023-03-24T06:54:11;96355.94;;;18.31;43.71
55171;BME280;41060;47.510;8.680;2023-03-24T06:56:37;96391.38;;;18.48;43.74
55171;BME280;41060;47.510;8.680;2023-03-24T06:59:04;96392.72;;;18.37;43.92
55171;BME280;41060;47.510;8.680;2023-03-24T07:01:32;96357.94;;;17.78;45.11
55171;BME280;41060;47.510;8.680;2023-03-24T07:04:00;96392.47;;;18.17;44.80
55171;BME280;41060;47.510;8.680;2023-03-24T07:06:27;96402.03;;;18.41;44.13
55171;BME280;41060;47.510;8.680;2023-03-24T07:08:54;96399.34;;;18.41;44.42
55171;BME280;41060;47.510;8.680;2023-03-24T07:11:21;96398.38;;;18.63;43.78
55171;BME280;41060;47.510;8.680;2023-03-24T07:13:48;96401.25;;;18.76;43.51
55171;BME280;41060;47.510;8.680;2023-03-24T07:16:15;96405.56;;;18.63;43.94
55171;BME280;41060;47.510;8.680;2023-03-24T07:18:42;96401.78;;;18.72;43.60
55171;BME280;41060;47.510;8.680;2023-03-24T07:21:10;96408.47;;;18.76;43.75
55171;BME280;41060;47.510;8.680;2023-03-24T07:23:36;96416.09;;;18.79;43.72
55171;BME280;41060;47.510;8.680;2023-03-24T07:26:03;96405.91;;;18.53;44.36
55171;BME280;41060;47.510;8.680;2023-03-24T07:28:30;96420.53;;;18.36;44.44
55171;BME280;41060;47.510;8.680;2023-03-24T07:30:56;96423.69;;;18.39;44.87
55171;BME280;41060;47.510;8.680;2023-03-24T07:33:26;96431.91;;;17.42;45.60
55171;BME280;41060;47.510;8.680;2023-03-24T07:35:56;96433.41;;;17.21;46.28
55171;BME280;41060;47.510;8.680;2023-03-24T07:38:23;96441.03;;;16.79;46.85
55171;BME280;41060;47.510;8.680;2023-03-24T07:40:50;96434.06;;;16.70;48.08
55171;BME280;41060;47.510;8.680;2023-03-24T07:43:17;96458.44;;;16.44;47.12
55171;BME280;41060;47.510;8.680;2023-03-24T07:45:44;96463.69;;;16.29;47.98
55171;BME280;41060;47.510;8.680;2023-03-24T07:48:11;96474.38;;;16.29;47.92
55171;BME280;41060;47.510;8.680;2023-03-24T07:50:38;96473.16;;;16.71;47.38
55171;BME280;41060;47.510;8.680;2023-03-24T07:53:06;96478.69;;;16.69;47.24
55171;BME280;41060;47.510;8.680;2023-03-24T07:55:34;96479.88;;;16.28;48.44
55171;BME280;41060;47.510;8.680;2023-03-24T07:58:01;96480.34;;;16.39;47.90
55171;BME280;41060;47.510;8.680;2023-03-24T08:00:28;96470.78;;;16.84;47.74
55171;BME280;41060;47.510;8.680;2023-03-24T08:02:57;96466.00;;;17.02;47.21
55171;BME280;41060;47.510;8.680;2023-03-24T08:05:27;96474.97;;;17.32;46.22
55171;BME280;41060;47.510;8.680;2023-03-24T08:07:54;96461.25;;;16.81;47.15
55171;BME280;41060;47.510;8.680;2023-03-24T08:10:25;96476.47;;;17.12;46.99
55171;BME280;41060;47.510;8.680;2023-03-24T08:12:56;96464.88;;;16.88;46.83
55171;BME280;41060;47.510;8.680;2023-03-24T08:15:23;96466.53;;;17.20;46.76
55171;BME280;41060;47.510;8.680;2023-03-24T08:17:50;96456.38;;;17.53;46.29
55171;BME280;41060;47.510;8.680;2023-03-24T08:20:18;96461.91;;;17.89;45.86
55171;BME280;41060;47.510;8.680;2023-03-24T08:22:47;96451.88;;;18.06;45.43
55171;BME280;41060;47.510;8.680;2023-03-24T08:25:15;96455.28;;;17.85;45.49
55171;BME280;41060;47.510;8.680;2023-03-24T08:27:44;96476.03;;;17.46;46.32
55171;BME280;41060;47.510;8.680;2023-03-24T08:30:14;96503.28;;;17.26;47.70
55171;BME280;41060;47.510;8.680;2023-03-24T08:32:43;96499.47;;;16.98;48.63
55171;BME280;41060;47.510;8.680;2023-03-24T08:35:11;96514.47;;;16.68;49.03
55171;BME280;41060;47.510;8.680;2023-03-24T08:37:41;96489.13;;;16.87;48.93
55171;BME280;41060;47.510;8.680;2023-03-24T08:40:11;96492.31;;;17.36;47.85
55171;BME280;41060;47.510;8.680;2023-03-24T08:42:41;96493.53;;;17.71;47.39
55171;BME280;41060;47.510;8.680;2023-03-24T08:45:11;96463.50;;;17.23;47.36
55171;BME280;41060;47.510;8.680;2023-03-24T08:47:38;96501.00;;;17.15;47.33
55171;BME280;41060;47.510;8.680;2023-03-24T08:50:08;96468.03;;;16.92;48.14
55171;BME280;41060;47.510;8.680;2023-03-24T08:52:37;96497.06;;;16.72;48.56
55171;BME280;41060;47.510;8.680;2023-03-24T08:55:07;96491.44;;;16.90;48.66
55171;BME280;41060;47.510;8.680;2023-03-24T08:57:34;96446.59;;;16.46;49.65
55171;BME280;41060;47.510;8.680;2023-03-24T09:00:02;96502.56;;;16.71;49.97
55171;BME280;41060;47.510;8.680;2023-03-24T09:02:38;96509.78;;;16.62;50.59
55171;BME280;41060;47.510;8.680;2023-03-24T09:05:05;96471.84;;;16.36;50.90
55171;BME280;41060;47.510;8.680;2023-03-24T09:07:31;96508.22;;;16.45;50.55
55171;BME280;41060;47.510;8.680;2023-03-24T09:09:58;96426.34;;;15.42;51.44
55171;BME280;41060;47.510;8.680;2023-03-24T09:12:25;96511.19;;;15.95;51.56
55171;BME280;41060;47.510;8.680;2023-03-24T09:14:51;96517.13;;;16.29;50.68
55171;BME280;41060;47.510;8.680;2023-03-24T09:17:18;96517.13;;;16.05;50.77
55171;BME280;41060;47.510;8.680;2023-03-24T09:19:47;96517.97;;;16.05;50.86
55171;BME280;41060;47.510;8.680;2023-03-24T09:22:13;96475.56;;;16.19;50.34
55171;BME280;41060;47.510;8.680;2023-03-24T09:24:40;96507.38;;;16.44;50.24
55171;BME280;41060;47.510;8.680;2023-03-24T09:27:08;96457.06;;;16.17;49.75
55171;BME280;41060;47.510;8.680;2023-03-24T09:29:38;96514.66;;;16.59;49.74
55171;BME280;41060;47.510;8.680;2023-03-24T09:32:05;96501.56;;;16.72;49.76
55171;BME280;41060;47.510;8.680;2023-03-24T09:34:32;96480.34;;;16.70;49.56
55171;BME280;41060;47.510;8.680;2023-03-24T09:37:00;96501.94;;;16.92;49.02
55171;BME280;41060;47.510;8.680;2023-03-24T09:39:27;96500.22;;;17.07;48.72
55171;BME280;41060;47.510;8.680;2023-03-24T09:41:54;96414.69;;;16.45;48.85
55171;BME280;41060;47.510;8.680;2023-03-24T09:44:24;96498.28;;;16.62;49.15
55171;BME280;41060;47.510;8.680;2023-03-24T09:46:56;96478.91;;;16.21;49.91
55171;BME280;41060;47.510;8.680;2023-03-24T09:49:27;96520.00;;;16.11;51.10
55171;BME280;41060;47.510;8.680;2023-03-24T09:52:01;96326.47;;;15.44;50.48
55171;BME280;41060;47.510;8.680;2023-03-24T09:54:33;96498.88;;;16.41;50.28
55171;BME280;41060;47.510;8.680;2023-03-24T09:57:03;96517.31;;;15.95;51.34
55171;BME280;41060;47.510;8.680;2023-03-24T09:59:38;96513.31;;;16.16;51.77
55171;BME280;41060;47.510;8.680;2023-03-24T10:02:10;96496.78;;;16.04;52.09
55171;BME280;41060;47.510;8.680;2023-03-24T10:04:39;96530.81;;;16.26;51.47
55171;BME280;41060;47.510;8.680;2023-03-24T10:07:15;96496.47;;;15.91;51.37
55171;BME280;41060;47.510;8.680;2023-03-24T10:09:50;96540.03;;;15.83;52.78
55171;BME280;41060;47.510;8.680;2023-03-24T10:12:27;96544.53;;;15.66;52.92
55171;BME280;41060;47.510;8.680;2023-03-24T10:15:07;96556.53;;;15.38;54.24
55171;BME280;41060;47.510;8.680;2023-03-24T10:17:41;96553.22;;;15.28;54.95
55171;BME280;41060;47.510;8.680;2023-03-24T10:20:23;96537.06;;;15.54;54.60
55171;BME280;41060;47.510;8.680;2023-03-24T10:22:58;96554.91;;;15.53;53.96
55171;BME280;41060;47.510;8.680;2023-03-24T10:25:35;96541.03;;;15.98;53.29
55171;BME280;41060;47.510;8.680;2023-03-24T10:28:13;96539.66;;;16.19;52.91
55171;BME280;41060;47.510;8.680;2023-03-24T10:30:41;96538.53;;;16.13;53.44
55171;BME280;41060;47.510;8.680;2023-03-24T10:33:11;96538.31;;;16.31;53.12
55171;BME280;41060;47.510;8.680;2023-03-24T10:35:40;96533.41;;;16.50;52.54
55171;BME280;41060;47.510;8.680;2023-03-24T10:38:14;96529.06;;;16.88;51.72
55171;BME280;41060;47.510;8.680;2023-03-24T10:40:43;96527.03;;;16.99;51.75
55171;BME280;41060;47.510;8.680;2023-03-24T10:43:10;96492.53;;;16.73;51.70
55171;BME280;41060;47.510;8.680;2023-03-24T10:45:39;96529.47;;;16.69;52.03
55171;BME280;41060;47.510;8.680;2023-03-24T10:48:12;96524.13;;;16.69;52.41
55171;BME280;41060;47.510;8.680;2023-03-24T10:50:41;96513.31;;;16.94;52.23
55171;BME280;41060;47.510;8.680;2023-03-24T10:53:15;96510.91;;;16.76;52.74
55171;BME280;41060;47.510;8.680;2023-03-24T10:55:42;96498.81;;;16.88;52.58
55171;BME280;41060;47.510;8.680;2023-03-24T10:58:17;96486.31;;;17.11;51.70
55171;BME280;41060;47.510;8.680;2023-03-24T11:00:46;96479.56;;;16.93;51.80
55171;BME280;41060;47.510;8.680;2023-03-24T11:03:15;96512.16;;;16.57;52.96
55171;BME280;41060;47.510;8.680;2023-03-24T11:05:43;96518.44;;;16.33;53.65
55171;BME280;41060;47.510;8.680;2023-03-24T11:08:22;96523.59;;;16.35;53.84
55171;BME280;41060;47.510;8.680;2023-03-24T11:10:51;96533.09;;;16.45;54.48
55171;BME280;41060;47.510;8.680;2023-03-24T11:13:27;96539.06;;;16.56;53.96
55171;BME280;41060;47.510;8.680;2023-03-24T11:15:56;96550.34;;;16.27;54.35
55171;BME280;41060;47.510;8.680;2023-03-24T11:18:31;96541.31;;;16.36;54.31
55171;BME280;41060;47.510;8.680;2023-03-24T11:21:00;96555.63;;;16.43;54.54
55171;BME280;41060;47.510;8.680;2023-03-24T11:23:31;96531.94;;;16.40;52.93
55171;BME280;41060;47.510;8.680;2023-03-24T11:26:07;96553.81;;;16.35;53.62
55171;BME280;41060;47.510;8.680;2023-03-24T11:28:37;96570.88;;;16.26;54.52
55171;BME280;41060;47.510;8.680;2023-03-24T11:31:06;96553.28;;;16.40;53.17
55171;BME280;41060;47.510;8.680;2023-03-24T11:33:48;96580.22;;;16.30;52.24
55171;BME280;41060;47.510;8.680;2023-03-24T11:36:36;96559.38;;;16.18;51.77
55171;BME280;41060;47.510;8.680;2023-03-24T11:39:17;96551.19;;;16.03;52.23
55171;BME280;41060;47.510;8.680;2023-03-24T11:41:51;96550.88;;;16.06;51.46
55171;BME280;41060;47.510;8.680;2023-03-24T11:44:20;96562.38;;;15.90;53.65
55171;BME280;41060;47.510;8.680;2023-03-24T11:46:50;96545.16;;;16.25;51.40
55171;BME280;41060;47.510;8.680;2023-03-24T11:49:21;96537.94;;;16.42;50.00
55171;BME280;41060;47.510;8.680;2023-03-24T11:51:52;96528.06;;;16.50;49.03
55171;BME280;41060;47.510;8.680;2023-03-24T11:54:23;96513.31;;;16.55;49.46
55171;BME280;41060;47.510;8.680;2023-03-24T11:56:54;96526.91;;;16.84;50.28
55171;BME280;41060;47.510;8.680;2023-03-24T11:59:27;96530.72;;;16.50;49.54
55171;BME280;41060;47.510;8.680;2023-03-24T12:02:03;96537.75;;;16.52;50.70
55171;BME280;41060;47.510;8.680;2023-03-24T12:04:44;96557.97;;;16.46;51.28
55171;BME280;41060;47.510;8.680;2023-03-24T12:07:31;96541.69;;;16.00;51.06
55171;BME280;41060;47.510;8.680;2023-03-24T12:10:08;96561.22;;;15.77;50.16
55171;BME280;41060;47.510;8.680;2023-03-24T12:12:48;96553.59;;;15.65;50.87
55171;BME280;41060;47.510;8.680;2023-03-24T12:15:29;96553.41;;;15.43;51.72
55171;BME280;41060;47.510;8.680;2023-03-24T12:18:18;96550.38;;;15.94;50.73
55171;BME280;41060;47.510;8.680;2023-03-24T12:20:53;96550.53;;;15.20;51.58
55171;BME280;41060;47.510;8.680;2023-03-24T12:23:33;96550.91;;;15.49;51.91
55171;BME280;41060;47.510;8.680;2023-03-24T12:26:12;96522.34;;;15.82;51.40
55171;BME280;41060;47.510;8.680;2023-03-24T12:29:05;96533.53;;;15.53;50.99
55171;BME280;41060;47.510;8.680;2023-03-24T12:31:53;96540.06;;;15.34;53.05
55171;BME280;41060;47.510;8.680;2023-03-24T12:34:37;96523.97;;;15.10;52.46
55171;BME280;41060;47.510;8.680;2023-03-24T12:37:13;96532.28;;;14.91;52.14
55171;BME280;41060;47.510;8.680;2023-03-24T12:39:51;96536.81;;;14.99;52.39
55171;BME280;41060;47.510;8.680;2023-03-24T12:42:24;96535.13;;;14.98;52.54
55171;BME280;41060;47.510;8.680;2023-03-24T12:45:15;96540.94;;;14.93;52.58
55171;BME280;41060;47.510;8.680;2023-03-24T12:47:58;96547.09;;;14.93;52.87
55171;BME280;41060;47.510;8.680;2023-03-24T12:50:36;96540.13;;;15.09;53.00
55171;BME280;41060;47.510;8.680;2023-03-24T12:55:58;96520.88;;;15.39;52.15
55171;BME280;41060;47.510;8.680;2023-03-24T12:58:35;96508.84;;;15.59;51.17
55171;BME280;41060;47.510;8.680;2023-03-24T13:01:12;96511.38;;;15.45;51.64
55171;BME280;41060;47.510;8.680;2023-03-24T13:03:44;96492.69;;;15.53;51.66
55171;BME280;41060;47.510;8.680;2023-03-24T13:06:16;96452.34;;;15.15;52.05
55171;BME280;41060;47.510;8.680;2023-03-24T13:08:54;96518.88;;;15.25;52.66
55171;BME280;41060;47.510;8.680;2023-03-24T13:11:30;96519.13;;;14.98;53.34
55171;BME280;41060;47.510;8.680;2023-03-24T13:14:02;96518.03;;;15.16;52.96
55171;BME280;41060;47.510;8.680;2023-03-24T13:16:33;96525.63;;;15.03;52.65
55171;BME280;41060;47.510;8.680;2023-03-24T13:19:01;96519.38;;;15.37;51.95
55171;BME280;41060;47.510;8.680;2023-03-24T13:21:28;96521.03;;;15.13;51.95
55171;BME280;41060;47.510;8.680;2023-03-24T13:24:04;96513.69;;;15.15;51.95
55171;BME280;41060;47.510;8.680;2023-03-24T13:26:36;96512.44;;;14.85;52.58
55171;BME280;41060;47.510;8.680;2023-03-24T13:29:17;96525.41;;;14.80;52.88
55171;BME280;41060;47.510;8.680;2023-03-24T13:31:50;96506.13;;;14.36;54.06